الصفحة الرئيسية
METAR-TAF:

METAR-TAF

مطار :

مطار أوزفالدو فييرا الدولي

بيساو, غينيا بيساو

دائرة عرض: 11-53N, خط طول: 015-39W, ارتفاع: 39 متر

مراقبة الطقس الحالي

تاريخ ووقت الإصدار 23 دقيقة قبل الساعة 16:00UTC
ريح 8 عقدة من الجنوب, الاتجاه يتراوح بين الجنوب الشرقي و الجنوب الغربي
درجة الحرارة 39°درجة مئوية
الرطوبة 15%
ضغط 1007 hPa
الرؤية: 7000 متر

METAR: GGOV 161600Z 17008KT 130V220 7000 NSC 39/08 Q1007 NOSIG

زمن: 16:23 (16:23 UTC)

توقعات

تاريخ ووقت الإصدار 17ساعات و 23 دقيقة قبل الساعة 23:00UTC
التوقعات صالحة من16 الساعة 00 UTC إلى 16 الساعة 24 UTC
ريح 5 عقدةمن اتجاهات متغيرة
الرؤية: 7000 متر

TAF: GGOV 152300Z 1600/1624 VRB05KT 7000 NSC

أرصاد الطقس والتوقعات من أكثر من 4000 مطار (تقارير الطقس للمطار METAR والتنبؤ بالطقس بالمطارTAF).

المحطات المتاحة هي النقط الصفراء والحمراء على الخريطة.

حرك المؤشر فوق النقطة لمعرفة اسم المحطة.

ثم انقر لمعرفة أرصاد وتوقعات الطقس.

لتغيير الخارطة: اضغط على الأزرار الخضراء مع رمز الصليب الأسود للتكبير. على الزر الأخضر مع شرطة للتصغير، أو على الأسهم الخضراء للخرائط المجاورة.


METAR-TAF: